Time;durP1;ratioP1;P1;durP2;ratioP2;P2;SDS_P1;SDS_P2;PMS_P1;PMS_P2;Temp;Humidity;BMP_temperature;BMP_pressure;BME280_temperature;BME280_humidity;BME280_pressure;Samples;Min_cycle;Max_cycle;Signal;HPM_P1;HPM_P2
2024/02/22 00:01:53;;;;;;;2.67;1.40;;;;;;;8.98;51.96;99696.09;4965263;28;20135;-74
2024/02/22 00:04:21;;;;;;;3.40;1.40;;;;;;;8.97;52.15;99692.50;4969967;28;20647;-74
2024/02/22 00:06:48;;;;;;;1.75;1.10;;;;;;;9.00;52.23;99694.09;4966187;28;20043;-75
2024/02/22 00:09:17;;;;;;;1.92;1.00;;;;;;;8.99;51.92;99682.31;4958936;28;20458;-75
2024/02/22 00:11:45;;;;;;;2.53;1.20;;;;;;;8.99;52.46;99681.44;4972900;28;20475;-75
2024/02/22 00:14:27;;;;;;;3.25;1.70;;;;;;;9.03;53.27;99677.38;5067893;23;20066;-74
2024/02/22 00:17:06;;;;;;;3.70;1.38;;;;;;;9.04;53.49;99679.97;4991558;28;20045;-77
2024/02/22 00:19:49;;;;;;;2.10;1.17;;;;;;;9.04;52.96;99685.44;4977287;28;20050;-76
2024/02/22 00:22:55;;;;;;;2.08;1.20;;;;;;;9.01;53.72;99669.34;4975315;28;20140;-74
2024/02/22 00:25:41;;;;;;;2.40;1.08;;;;;;;9.03;52.09;99661.88;4947047;28;20054;-74
2024/02/22 00:28:12;;;;;;;1.77;1.00;;;;;;;9.04;52.01;99668.19;4992955;28;20046;-75
2024/02/22 00:30:40;;;;;;;1.85;0.90;;;;;;;9.06;52.53;99663.44;4991010;28;20410;-74
2024/02/22 00:33:09;;;;;;;3.65;1.10;;;;;;;9.08;52.55;99656.81;4968257;28;20053;-74
2024/02/22 00:35:37;;;;;;;2.00;0.95;;;;;;;9.06;52.51;99660.72;4971239;28;20070;-75
2024/02/22 00:38:05;;;;;;;1.83;1.10;;;;;;;9.06;52.55;99658.84;4989314;28;20386;-75
2024/02/22 00:40:33;;;;;;;2.97;1.40;;;;;;;9.07;52.56;99649.66;4986701;28;20035;-74
2024/02/22 00:43:02;;;;;;;2.22;1.20;;;;;;;9.07;52.39;99646.06;4983471;28;20050;-74
2024/02/22 00:45:33;;;;;;;2.63;1.20;;;;;;;9.07;52.39;99649.66;4984810;28;20046;-74
2024/02/22 00:48:10;;;;;;;2.22;1.30;;;;;;;9.07;52.71;99636.00;4995008;28;20502;-73
2024/02/22 00:50:39;;;;;;;2.92;1.40;;;;;;;9.08;52.69;99634.13;4969548;28;20478;-74
2024/02/22 00:53:07;;;;;;;2.20;1.27;;;;;;;9.07;52.84;99630.53;4988061;28;20487;-74
2024/02/22 00:55:37;;;;;;;2.20;1.35;;;;;;;9.08;52.66;99620.50;4988497;28;20046;-74
2024/02/22 00:58:05;;;;;;;2.13;1.08;;;;;;;9.07;52.39;99625.09;4987085;28;20433;-74
2024/02/22 01:00:36;;;;;;;2.13;1.30;;;;;;;9.07;52.73;99613.31;4985147;28;20138;-74
2024/02/22 01:03:06;;;;;;;1.90;1.10;;;;;;;9.07;52.46;99616.03;4986293;28;20053;-75
2024/02/22 01:05:33;;;;;;;2.08;1.23;;;;;;;9.07;52.96;99613.31;4976985;28;20042;-74
2024/02/22 01:08:04;;;;;;;2.53;1.13;;;;;;;9.09;52.88;99603.06;4963925;28;20409;-74
2024/02/22 01:10:33;;;;;;;1.90;1.15;;;;;;;9.07;52.54;99600.53;4967020;28;20527;-74
2024/02/22 01:13:02;;;;;;;2.05;1.20;;;;;;;9.08;52.89;99588.56;4983102;28;20130;-74
2024/02/22 01:15:29;;;;;;;2.00;1.20;;;;;;;9.08;53.05;99591.28;4995585;28;20042;-74
2024/02/22 01:18:00;;;;;;;1.60;1.00;;;;;;;9.09;53.01;99573.91;4992186;28;20493;-73
2024/02/22 01:20:27;;;;;;;1.92;1.10;;;;;;;9.10;52.87;99574.78;4998507;28;20038;-74
2024/02/22 01:22:55;;;;;;;1.65;1.00;;;;;;;9.11;53.27;99573.75;5001004;28;20049;-74
2024/02/22 01:25:24;;;;;;;1.98;1.20;;;;;;;9.13;52.99;99563.56;4990664;28;20528;-73
2024/02/22 01:27:52;;;;;;;2.95;1.20;;;;;;;9.11;53.17;99565.56;4992954;28;20048;-73
2024/02/22 01:30:20;;;;;;;2.50;1.08;;;;;;;9.14;53.23;99561.69;4994592;28;20155;-73
2024/02/22 01:32:48;;;;;;;2.10;1.02;;;;;;;9.13;53.30;99555.38;4973273;28;20428;-72
2024/02/22 01:35:17;;;;;;;3.03;1.20;;;;;;;9.14;53.21;99546.16;4981655;28;20042;-73
2024/02/22 01:37:45;;;;;;;3.42;1.20;;;;;;;9.15;53.07;99541.56;4984543;28;20057;-72
2024/02/22 01:40:15;;;;;;;2.90;1.23;;;;;;;9.15;53.24;99527.91;4985900;28;20141;-73
2024/02/22 01:42:44;;;;;;;2.45;1.10;;;;;;;9.16;53.48;99526.91;4991288;28;20477;-72
2024/02/22 01:45:12;;;;;;;2.40;1.00;;;;;;;9.15;52.98;99527.91;4974075;28;20058;-73
2024/02/22 01:47:40;;;;;;;2.45;1.02;;;;;;;9.16;53.44;99526.91;4971280;28;20038;-73
2024/02/22 01:50:10;;;;;;;1.88;1.10;;;;;;;9.16;53.14;99519.56;4969787;28;20046;-73
2024/02/22 01:52:39;;;;;;;2.53;0.90;;;;;;;9.17;53.63;99520.41;4995020;28;20043;-73
2024/02/22 01:55:08;;;;;;;1.90;0.98;;;;;;;9.18;53.44;99522.13;4993461;28;20420;-73
2024/02/22 01:57:37;;;;;;;1.77;1.08;;;;;;;9.18;53.52;99509.34;4972340;28;20414;-74
2024/02/22 02:00:15;;;;;;;1.55;0.85;;;;;;;9.20;53.70;99514.63;4973322;28;20064;-74
2024/02/22 02:02:43;;;;;;;2.22;1.00;;;;;;;9.18;53.84;99509.34;4988143;28;20034;-74
2024/02/22 02:05:11;;;;;;;1.58;0.90;;;;;;;9.19;53.38;99502.00;4990733;28;20117;-74
2024/02/22 02:07:40;;;;;;;1.50;0.80;;;;;;;9.19;53.21;99497.41;4971356;28;20409;-74
2024/02/22 02:10:09;;;;;;;1.35;0.80;;;;;;;9.20;53.55;99493.66;4988362;28;20049;-74
2024/02/22 02:12:38;;;;;;;2.15;0.85;;;;;;;9.20;53.50;99492.81;4979355;28;20418;-75
2024/02/22 02:15:08;;;;;;;0.93;0.63;;;;;;;9.21;53.64;99489.06;4975079;28;20045;-74
2024/02/22 02:17:36;;;;;;;1.88;0.85;;;;;;;9.20;53.66;99492.81;4990624;28;20077;-74
2024/02/22 02:20:10;;;;;;;0.85;0.80;;;;;;;9.21;53.67;99497.25;4962201;28;20059;-74
2024/02/22 02:22:56;;;;;;;1.70;0.70;;;;;;;9.22;54.97;99491.63;4993358;28;20043;-74
2024/02/22 02:25:28;;;;;;;1.60;0.70;;;;;;;9.20;53.69;99482.75;4968927;28;20046;-75
2024/02/22 02:27:56;;;;;;;1.63;0.77;;;;;;;9.16;53.68;99475.91;4987075;28;20073;-74
2024/02/22 02:30:24;;;;;;;1.08;0.65;;;;;;;9.19;54.00;99472.84;4994207;28;20056;-74
2024/02/22 02:32:52;;;;;;;1.65;0.70;;;;;;;9.19;53.86;99475.56;4986353;28;20547;-73
2024/02/22 02:35:20;;;;;;;1.17;0.70;;;;;;;9.19;54.12;99464.66;4996171;28;20046;-73
2024/02/22 02:37:48;;;;;;;1.40;0.70;;;;;;;9.19;53.92;99461.91;4992710;28;20076;-74
2024/02/22 02:40:16;;;;;;;1.10;0.70;;;;;;;9.19;54.07;99459.19;4972625;28;20105;-73
2024/02/22 02:42:46;;;;;;;1.50;0.60;;;;;;;9.20;54.07;99454.59;4971946;28;20053;-73
2024/02/22 02:45:13;;;;;;;0.75;0.55;;;;;;;9.19;53.72;99450.13;4971827;28;20043;-73
2024/02/22 02:47:41;;;;;;;0.80;0.60;;;;;;;9.20;54.09;99449.13;4973562;28;20094;-73
2024/02/22 02:50:11;;;;;;;1.55;0.73;;;;;;;9.20;54.01;99444.53;4982234;28;20064;-74
2024/02/22 02:52:40;;;;;;;1.42;0.60;;;;;;;9.20;54.25;99433.59;4978915;28;20070;-74
2024/02/22 02:55:12;;;;;;;0.60;0.47;;;;;;;9.21;54.15;99435.31;4972510;28;20073;-74
2024/02/22 02:57:43;;;;;;;0.60;0.50;;;;;;;9.19;53.86;99437.34;4978309;28;20045;-75
2024/02/22 03:00:14;;;;;;;1.08;0.70;;;;;;;9.23;54.69;99432.44;4987033;28;20523;-74
2024/02/22 03:02:43;;;;;;;1.25;0.60;;;;;;;9.22;54.22;99419.81;4990217;28;20514;-75
2024/02/22 03:05:11;;;;;;;0.75;0.40;;;;;;;9.22;54.37;99423.41;4988475;28;20033;-75
2024/02/22 03:07:39;;;;;;;1.42;0.57;;;;;;;9.22;54.35;99414.34;4972348;28;20046;-75
2024/02/22 03:10:08;;;;;;;0.55;0.45;;;;;;;9.22;54.49;99415.22;4987911;28;20101;-74
2024/02/22 03:12:36;;;;;;;1.10;0.52;;;;;;;9.22;54.52;99412.47;4984759;28;20040;-75
2024/02/22 03:15:04;;;;;;;0.43;0.40;;;;;;;9.24;54.08;99409.59;4985066;28;20080;-75
2024/02/22 03:17:34;;;;;;;0.60;0.40;;;;;;;9.25;54.21;99412.13;4974106;28;20108;-75
2024/02/22 03:20:04;;;;;;;1.15;0.50;;;;;;;9.23;54.29;99410.59;4989874;28;20042;-75
2024/02/22 03:22:32;;;;;;;1.50;0.60;;;;;;;9.24;54.19;99404.13;4983968;28;20506;-75
2024/02/22 03:25:00;;;;;;;1.23;0.50;;;;;;;9.25;54.68;99411.28;4985067;28;20141;-75
2024/02/22 03:27:28;;;;;;;1.25;0.60;;;;;;;9.25;54.22;99408.53;4988283;28;20050;-75
2024/02/22 03:29:56;;;;;;;1.20;0.50;;;;;;;9.25;54.70;99405.81;4993205;28;20133;-75
2024/02/22 03:32:24;;;;;;;0.75;0.55;;;;;;;9.26;54.79;99400.19;4996171;28;20043;-75
2024/02/22 03:34:53;;;;;;;2.10;0.50;;;;;;;9.28;54.91;99406.38;4972745;28;20038;-74
2024/02/22 03:37:21;;;;;;;0.98;0.55;;;;;;;9.27;54.62;99396.44;4992987;28;20041;-75
2024/02/22 03:39:50;;;;;;;0.50;0.43;;;;;;;9.27;54.37;99396.44;4989592;28;20053;-74
2024/02/22 03:42:18;;;;;;;1.00;0.52;;;;;;;9.28;54.85;99394.59;4967327;28;20046;-74
2024/02/22 03:44:46;;;;;;;0.93;0.68;;;;;;;9.28;54.52;99392.72;4989621;28;20050;-75
2024/02/22 03:47:14;;;;;;;0.55;0.40;;;;;;;9.28;54.77;99387.25;4973896;28;20406;-74
2024/02/22 03:49:42;;;;;;;1.27;0.60;;;;;;;9.30;54.42;99392.56;4989512;28;20469;-75
2024/02/22 03:52:13;;;;;;;0.40;0.40;;;;;;;9.31;55.01;99389.66;4988128;28;20081;-75
2024/02/22 03:54:41;;;;;;;0.77;0.40;;;;;;;9.29;54.65;99388.97;4989210;28;20417;-75
2024/02/22 03:57:12;;;;;;;0.60;0.50;;;;;;;9.29;54.51;99377.19;4984078;28;20046;-75
2024/02/22 03:59:38;;;;;;;0.70;0.60;;;;;;;9.29;54.51;99374.47;4991017;28;20129;-74
2024/02/22 04:02:06;;;;;;;0.88;0.40;;;;;;;9.31;54.98;99377.91;4968681;28;20065;-74
2024/02/22 04:04:34;;;;;;;1.02;0.45;;;;;;;9.30;55.13;99373.44;4966239;28;20063;-75
2024/02/22 04:07:03;;;;;;;0.55;0.50;;;;;;;9.30;55.00;99377.03;4982602;28;20475;-75
2024/02/22 04:09:32;;;;;;;0.68;0.40;;;;;;;9.30;54.87;99363.38;4986994;28;20145;-74
2024/02/22 04:12:00;;;;;;;1.45;0.57;;;;;;;9.29;55.13;99358.06;4971242;28;20097;-74
2024/02/22 04:14:28;;;;;;;0.50;0.50;;;;;;;9.30;54.71;99359.78;4990936;28;20042;-74
2024/02/22 04:16:56;;;;;;;1.70;0.60;;;;;;;9.29;54.76;99347.16;4994956;28;20133;-74
2024/02/22 04:19:24;;;;;;;0.95;0.50;;;;;;;9.29;54.84;99348.03;4969403;28;20047;-74
2024/02/22 04:21:52;;;;;;;0.75;0.50;;;;;;;9.31;55.19;99345.13;4969018;28;20141;-74
2024/02/22 04:24:20;;;;;;;1.00;0.50;;;;;;;9.31;55.17;99345.13;4968356;28;20050;-74
2024/02/22 04:26:51;;;;;;;0.93;0.60;;;;;;;9.32;55.24;99330.47;4987735;28;20129;-74
2024/02/22 04:29:19;;;;;;;0.75;0.60;;;;;;;9.31;55.34;99335.06;4990986;28;20096;-74
2024/02/22 04:31:48;;;;;;;1.02;0.50;;;;;;;9.32;55.13;99334.06;4971085;28;20054;-74
2024/02/22 04:34:16;;;;;;;1.10;0.70;;;;;;;9.31;54.96;99326.88;4995921;28;20126;-74
2024/02/22 04:36:44;;;;;;;0.50;0.50;;;;;;;9.32;55.30;99322.28;4991842;28;20038;-74
2024/02/22 04:39:13;;;;;;;0.77;0.50;;;;;;;9.32;55.32;99320.41;4986860;28;20058;-74
2024/02/22 04:41:42;;;;;;;0.52;0.40;;;;;;;9.34;55.63;99325.66;4970189;28;20050;-74
2024/02/22 04:44:11;;;;;;;0.88;0.60;;;;;;;9.34;55.75;99318.34;4987589;28;20711;-75
2024/02/22 04:46:39;;;;;;;1.35;0.70;;;;;;;9.34;55.14;99315.59;4990879;28;20069;-74
2024/02/22 04:49:09;;;;;;;0.73;0.65;;;;;;;9.33;55.09;99313.91;4984278;28;20066;-74
2024/02/22 04:51:40;;;;;;;1.17;0.65;;;;;;;9.33;55.58;99316.63;4967881;28;20041;-73
2024/02/22 04:54:07;;;;;;;1.08;0.52;;;;;;;9.34;55.42;99306.56;4991089;28;20052;-73
2024/02/22 04:56:36;;;;;;;1.13;0.50;;;;;;;9.33;55.16;99302.16;4990824;28;20039;-73
2024/02/22 04:59:04;;;;;;;1.67;0.70;;;;;;;9.34;55.65;99310.16;4966776;28;20085;-73
2024/02/22 05:01:33;;;;;;;0.98;0.60;;;;;;;9.36;55.33;99299.06;4987303;28;20047;-73
2024/02/22 05:04:01;;;;;;;1.42;0.57;;;;;;;9.34;55.27;99301.09;4988374;28;20050;-73
2024/02/22 05:06:29;;;;;;;1.23;0.55;;;;;;;9.34;55.18;99301.09;4987976;28;20034;-73
2024/02/22 05:08:57;;;;;;;1.38;0.55;;;;;;;9.34;55.38;99298.38;4964896;28;20042;-73
2024/02/22 05:11:25;;;;;;;1.02;0.60;;;;;;;9.35;55.82;99302.81;4990497;28;20038;-73
2024/02/22 05:13:57;;;;;;;1.33;0.65;;;;;;;9.33;55.64;99296.69;4974535;28;20046;-73
2024/02/22 05:16:25;;;;;;;1.58;0.70;;;;;;;9.34;55.73;99293.75;4972137;28;20385;-73
2024/02/22 05:18:54;;;;;;;0.88;0.70;;;;;;;9.36;55.79;99293.59;4989743;28;20579;-73
2024/02/22 05:21:22;;;;;;;1.55;0.60;;;;;;;9.34;55.69;99290.19;4989738;28;20498;-73
2024/02/22 05:23:50;;;;;;;0.63;0.63;;;;;;;9.35;55.54;99283.69;4989325;28;20537;-73
2024/02/22 05:26:18;;;;;;;0.75;0.60;;;;;;;9.35;55.52;99290.03;4986054;28;20150;-73
2024/02/22 05:28:46;;;;;;;1.63;0.70;;;;;;;9.36;55.97;99280.81;4969322;28;20046;-73
2024/02/22 05:31:22;;;;;;;1.15;0.60;;;;;;;9.39;56.65;99274.22;4987246;28;20050;-73
2024/02/22 05:33:50;;;;;;;1.55;0.63;;;;;;;9.37;55.91;99276.22;4986229;28;20044;-73
2024/02/22 05:36:20;;;;;;;1.92;0.68;;;;;;;9.38;55.89;99272.47;4970744;28;20042;-73
2024/02/22 05:38:49;;;;;;;2.17;0.80;;;;;;;9.38;55.43;99267.00;4968400;28;20047;-73
2024/02/22 05:41:17;;;;;;;0.95;0.52;;;;;;;9.38;55.80;99259.69;4968843;28;20150;-72
2024/02/22 05:43:45;;;;;;;1.17;0.70;;;;;;;9.38;56.16;99253.34;4981629;28;20050;-73
2024/02/22 05:46:13;;;;;;;1.50;0.68;;;;;;;9.39;55.62;99252.38;4996137;28;20046;-73
2024/02/22 05:48:41;;;;;;;1.23;0.60;;;;;;;9.39;55.54;99253.22;4985318;28;20066;-73
2024/02/22 05:51:08;;;;;;;1.35;0.80;;;;;;;9.40;55.97;99252.22;4974282;28;20052;-73
2024/02/22 05:53:38;;;;;;;1.35;0.70;;;;;;;9.43;55.92;99251.00;4989164;28;20046;-72
2024/02/22 05:56:06;;;;;;;1.13;0.55;;;;;;;9.42;55.63;99257.47;4988968;28;20046;-72
2024/02/22 05:58:34;;;;;;;1.77;0.60;;;;;;;9.42;56.01;99255.59;4988237;28;20060;-72
2024/02/22 06:01:02;;;;;;;2.28;0.70;;;;;;;9.43;56.09;99251.00;4991658;28;20093;-72
2024/02/22 06:03:30;;;;;;;1.10;0.55;;;;;;;9.44;56.06;99253.56;4989705;28;20522;-72
2024/02/22 06:05:58;;;;;;;1.50;0.73;;;;;;;9.44;55.63;99259.03;4988733;28;20040;-72
2024/02/22 06:08:26;;;;;;;0.88;0.55;;;;;;;9.45;56.22;99257.16;4984929;28;20804;-73
2024/02/22 06:10:56;;;;;;;1.30;0.80;;;;;;;9.47;56.05;99252.38;4987853;28;20431;-72
2024/02/22 06:13:24;;;;;;;1.75;0.70;;;;;;;9.47;56.25;99255.13;4969901;28;20129;-72
2024/02/22 06:15:52;;;;;;;2.83;0.93;;;;;;;9.48;56.09;99247.78;4992189;28;20146;-72
2024/02/22 06:18:20;;;;;;;1.83;0.80;;;;;;;9.48;56.02;99239.59;4996553;28;20191;-73
2024/02/22 06:20:47;;;;;;;1.60;0.65;;;;;;;9.49;56.07;99230.38;4973150;28;20056;-73
2024/02/22 06:23:15;;;;;;;2.08;0.80;;;;;;;9.49;55.68;99223.03;4991012;28;20076;-73
2024/02/22 06:25:44;;;;;;;1.15;0.80;;;;;;;9.49;56.04;99220.31;4996888;28;20046;-72
2024/02/22 06:28:15;;;;;;;1.98;0.90;;;;;;;9.52;56.12;99214.50;4988373;28;20102;-73
2024/02/22 06:30:43;;;;;;;2.92;1.40;;;;;;;9.50;55.70;99216.53;4988948;28;20410;-73
2024/02/22 06:33:12;;;;;;;3.08;1.10;;;;;;;9.51;55.71;99201.00;4983020;28;20316;-73
2024/02/22 06:35:39;;;;;;;2.47;1.10;;;;;;;9.52;55.65;99203.56;4970628;28;20789;-73
2024/02/22 06:38:07;;;;;;;1.48;0.93;;;;;;;9.53;55.53;99196.25;4968174;28;20494;-73
2024/02/22 06:40:35;;;;;;;1.98;1.00;;;;;;;9.52;55.74;99189.91;4990558;28;20364;-72
2024/02/22 06:43:03;;;;;;;1.95;1.00;;;;;;;9.52;55.55;99191.78;4990489;28;20072;-73
2024/02/22 06:45:32;;;;;;;1.92;1.10;;;;;;;9.53;55.88;99180.72;4991559;28;20061;-72
2024/02/22 06:48:01;;;;;;;2.33;1.20;;;;;;;9.51;56.08;99179.16;4971762;28;20120;-73
2024/02/22 06:50:30;;;;;;;1.65;1.08;;;;;;;9.51;55.54;99179.16;4987048;28;20526;-73
2024/02/22 06:52:58;;;;;;;2.05;1.20;;;;;;;9.51;55.36;99173.69;4973431;28;20060;-73
2024/02/22 06:55:26;;;;;;;2.67;1.30;;;;;;;9.51;55.75;99163.63;4993061;28;20454;-73
2024/02/22 06:57:55;;;;;;;3.35;1.50;;;;;;;9.51;55.42;99162.78;4986556;28;20137;-73
2024/02/22 07:00:23;;;;;;;1.98;1.17;;;;;;;9.49;55.54;99162.97;4989864;28;20246;-73
2024/02/22 07:02:53;;;;;;;3.30;1.40;;;;;;;9.52;55.94;99150.84;4967191;28;20442;-73
2024/02/22 07:05:21;;;;;;;2.15;1.20;;;;;;;9.50;55.99;99147.41;4972217;28;20554;-73
2024/02/22 07:07:49;;;;;;;1.88;1.10;;;;;;;9.50;56.01;99144.69;4990801;28;20041;-73
2024/02/22 07:10:17;;;;;;;3.08;1.50;;;;;;;9.49;55.60;99146.59;4973231;28;20120;-73
2024/02/22 07:12:46;;;;;;;2.78;1.50;;;;;;;9.48;55.90;99136.69;4982416;28;20051;-74
2024/02/22 07:15:15;;;;;;;2.08;1.25;;;;;;;9.48;55.60;99136.69;4972331;28;20049;-73
2024/02/22 07:17:43;;;;;;;3.00;1.50;;;;;;;9.48;55.58;99133.09;4986372;28;20042;-73
2024/02/22 07:20:14;;;;;;;2.65;1.23;;;;;;;9.48;56.17;99125.75;4996213;28;20046;-73
2024/02/22 07:22:43;;;;;;;2.63;1.25;;;;;;;9.48;55.60;99131.22;4981040;28;20060;-73
2024/02/22 07:25:11;;;;;;;3.50;1.50;;;;;;;9.48;55.68;99122.19;4970601;28;20046;-73
2024/02/22 07:27:40;;;;;;;1.95;1.13;;;;;;;9.48;56.07;99114.84;4987893;28;20042;-74
2024/02/22 07:30:09;;;;;;;2.17;1.20;;;;;;;9.49;56.10;99116.56;4990698;28;20042;-74
2024/02/22 07:32:37;;;;;;;3.65;1.33;;;;;;;9.49;55.83;99113.81;4975517;28;20093;-73
2024/02/22 07:35:06;;;;;;;1.98;1.17;;;;;;;9.50;55.71;99112.75;4986812;28;20047;-73
2024/02/22 07:37:36;;;;;;;2.08;1.17;;;;;;;9.51;56.08;99103.56;4973647;28;20450;-73
2024/02/22 07:40:05;;;;;;;2.50;1.35;;;;;;;9.51;55.54;99103.56;4988526;28;20046;-73
2024/02/22 07:42:33;;;;;;;3.88;1.40;;;;;;;9.52;55.98;99102.53;4971801;28;24646;-73
2024/02/22 07:45:04;;;;;;;2.40;1.30;;;;;;;9.53;55.91;99087.84;4984161;28;20440;-74
2024/02/22 07:47:32;;;;;;;2.67;1.30;;;;;;;9.53;55.95;99092.47;4981032;28;20039;-73
2024/02/22 07:50:00;;;;;;;2.92;1.50;;;;;;;9.53;56.11;99087.84;4990669;28;20045;-73
2024/02/22 07:52:28;;;;;;;2.75;1.30;;;;;;;9.55;55.76;99087.69;4968145;28;20046;-73
2024/02/22 07:54:58;;;;;;;2.65;1.30;;;;;;;9.57;56.17;99083.78;4971085;28;20603;-73
2024/02/22 07:57:25;;;;;;;2.50;1.35;;;;;;;9.56;55.64;99075.75;4980378;28;20062;-73
2024/02/22 07:59:57;;;;;;;2.63;1.40;;;;;;;9.57;56.08;99069.28;4979281;28;20040;-73
2024/02/22 08:02:26;;;;;;;2.88;1.20;;;;;;;9.58;55.97;99060.88;4986108;28;20129;-72
2024/02/22 08:04:54;;;;;;;2.65;1.38;;;;;;;9.58;55.69;99057.28;4974436;28;21660;-73
2024/02/22 08:07:22;;;;;;;3.20;1.42;;;;;;;9.58;56.05;99041.75;4969719;28;20050;-74
2024/02/22 08:09:51;;;;;;;2.53;1.45;;;;;;;9.58;55.62;99041.75;5001770;28;20034;-75
2024/02/22 08:12:20;;;;;;;3.10;1.60;;;;;;;9.61;56.22;99046.88;4988085;28;20049;-73
2024/02/22 08:14:48;;;;;;;2.63;1.38;;;;;;;9.61;55.72;99043.31;4971135;28;20042;-71
2024/02/22 08:17:17;;;;;;;2.55;1.40;;;;;;;9.62;56.35;99039.56;4972477;28;20469;-73
2024/02/22 08:19:47;;;;;;;2.20;1.35;;;;;;;9.62;55.71;99045.00;4978842;28;20046;-72
2024/02/22 08:22:17;;;;;;;2.70;1.40;;;;;;;9.62;56.19;99034.09;4986351;28;20116;-72
2024/02/22 08:24:47;;;;;;;2.08;1.30;;;;;;;9.63;56.22;99033.91;4975336;28;20120;-74
2024/02/22 08:27:17;;;;;;;3.42;1.30;;;;;;;9.63;56.01;99030.34;4984576;28;20074;-72
2024/02/22 08:29:50;;;;;;;2.85;1.35;;;;;;;9.65;56.20;99012.75;4990145;28;20093;-73
2024/02/22 08:32:18;;;;;;;2.20;1.10;;;;;;;9.64;56.14;98999.28;4987347;28;20090;-73
2024/02/22 08:34:46;;;;;;;2.10;1.10;;;;;;;9.64;56.02;98994.66;4970165;28;20165;-73
2024/02/22 08:37:15;;;;;;;2.63;1.40;;;;;;;9.65;55.85;98990.91;4987059;28;20104;-73
2024/02/22 08:39:42;;;;;;;3.50;1.40;;;;;;;9.66;56.09;98980.84;4988203;28;20077;-73
2024/02/22 08:42:10;;;;;;;2.08;1.23;;;;;;;9.66;56.15;98970.72;4983855;28;20057;-72
2024/02/22 08:44:38;;;;;;;2.00;1.20;;;;;;;9.66;56.10;98967.19;4981752;28;20513;-72
2024/02/22 08:47:09;;;;;;;3.33;1.58;;;;;;;9.68;56.16;98960.50;4987930;28;20414;-72
2024/02/22 08:49:38;;;;;;;2.22;1.20;;;;;;;9.66;56.36;98957.06;4968366;28;20053;-72
2024/02/22 08:52:07;;;;;;;2.78;1.33;;;;;;;9.68;55.76;98948.72;4988338;28;20054;-72
2024/02/22 08:54:37;;;;;;;2.80;1.50;;;;;;;9.69;55.86;98939.50;4995000;28;20493;-73
2024/02/22 08:57:06;;;;;;;3.00;1.40;;;;;;;9.71;56.24;98937.44;4982821;28;20051;-73
2024/02/22 08:59:33;;;;;;;2.28;1.33;;;;;;;9.71;56.18;98926.53;4970184;28;20039;-72
2024/02/22 09:02:01;;;;;;;2.53;1.23;;;;;;;9.73;56.41;98927.22;4968051;28;20134;-72
2024/02/22 09:04:31;;;;;;;2.55;1.30;;;;;;;9.75;56.15;98923.25;4986209;28;20394;-75
2024/02/22 09:06:59;;;;;;;2.33;1.30;;;;;;;9.73;55.97;98916.28;4989169;28;20039;-76
2024/02/22 09:09:28;;;;;;;2.10;1.15;;;;;;;9.75;56.16;98906.84;4989711;28;20046;-76
2024/02/22 09:11:56;;;;;;;1.67;1.10;;;;;;;9.76;55.73;98904.97;4975970;28;20078;-75
2024/02/22 09:14:25;;;;;;;2.55;1.20;;;;;;;9.75;56.08;98901.38;4996053;28;20116;-75
2024/02/22 09:16:55;;;;;;;2.65;1.65;;;;;;;9.77;56.22;98898.50;4973082;28;20452;-76
2024/02/22 09:19:25;;;;;;;2.10;1.20;;;;;;;9.78;56.30;98897.47;4995329;28;20489;-75
2024/02/22 09:21:59;;;;;;;3.35;1.48;;;;;;;9.80;56.29;98895.41;4977147;28;20053;-76
2024/02/22 09:24:27;;;;;;;2.45;1.40;;;;;;;9.79;55.88;98889.09;4972679;28;20101;-76
2024/02/22 09:26:55;;;;;;;3.13;1.30;;;;;;;9.80;56.28;98881.75;5000071;28;20042;-76
2024/02/22 09:29:24;;;;;;;2.88;1.25;;;;;;;9.82;56.48;98879.72;4993722;28;20046;-76
2024/02/22 09:31:55;;;;;;;2.65;1.40;;;;;;;9.80;56.40;98874.41;4976010;28;20092;-76
2024/02/22 09:34:24;;;;;;;2.78;1.17;;;;;;;9.83;55.78;98874.03;5002094;28;20038;-75
2024/02/22 09:36:52;;;;;;;2.30;1.10;;;;;;;9.85;56.02;98865.66;5003206;28;20050;-76
2024/02/22 09:39:21;;;;;;;1.63;1.10;;;;;;;9.87;56.35;98849.97;4984595;28;20054;-75
2024/02/22 09:41:49;;;;;;;2.35;1.20;;;;;;;9.85;55.87;98858.31;4994336;28;20042;-76
2024/02/22 09:44:19;;;;;;;2.65;1.38;;;;;;;9.87;56.16;98852.69;5007095;28;20053;-76
2024/02/22 09:46:53;;;;;;;2.50;1.35;;;;;;;9.88;55.95;98846.19;4984194;28;20053;-75
2024/02/22 09:49:22;;;;;;;3.30;1.67;;;;;;;9.85;56.01;98828.28;4997301;28;20140;-75
2024/02/22 09:51:51;;;;;;;2.47;1.33;;;;;;;9.88;56.30;98820.75;4985980;28;20576;-76
2024/02/22 09:54:21;;;;;;;1.77;1.00;;;;;;;9.89;55.80;98811.53;4980476;28;20106;-76
2024/02/22 09:56:50;;;;;;;3.00;1.33;;;;;;;9.88;55.95;98804.38;4993469;28;20509;-76
2024/02/22 09:59:19;;;;;;;1.42;0.98;;;;;;;9.90;55.84;98799.56;4976334;28;20047;-75
2024/02/22 10:01:47;;;;;;;2.17;1.10;;;;;;;9.88;56.06;98794.28;4994713;28;20045;-76
2024/02/22 10:04:19;;;;;;;2.20;1.10;;;;;;;9.90;55.91;98781.31;4998379;28;20042;-76
2024/02/22 10:06:48;;;;;;;2.47;1.10;;;;;;;9.88;56.17;98774.31;4986420;28;20441;-76
2024/02/22 10:09:16;;;;;;;1.85;0.85;;;;;;;9.93;56.33;98769.13;5008137;28;20391;-76
2024/02/22 10:11:47;;;;;;;1.60;0.85;;;;;;;9.95;56.41;98767.94;4976004;28;20034;-76
2024/02/22 10:14:16;;;;;;;1.40;0.75;;;;;;;9.95;55.98;98758.88;4981082;28;20410;-76
2024/02/22 10:16:46;;;;;;;1.90;0.95;;;;;;;9.95;56.57;98742.50;4986782;28;20050;-76
2024/02/22 10:19:16;;;;;;;1.88;0.82;;;;;;;9.95;56.31;98735.16;5006748;28;20054;-75
2024/02/22 10:21:46;;;;;;;1.40;0.82;;;;;;;10.00;56.55;98726.38;4992494;28;20050;-76
2024/02/22 10:24:14;;;;;;;1.08;0.70;;;;;;;10.01;56.57;98718.00;4981896;28;20100;-76
2024/02/22 10:26:42;;;;;;;1.85;0.75;;;;;;;10.03;56.59;98709.63;4993260;28;20465;-76
2024/02/22 10:29:13;;;;;;;1.50;0.80;;;;;;;10.08;56.49;98705.31;4975156;28;20060;-76
2024/02/22 10:31:45;;;;;;;1.73;0.80;;;;;;;10.12;56.51;98692.13;4975518;28;20076;-76
2024/02/22 10:34:15;;;;;;;1.48;0.70;;;;;;;10.13;56.39;98694.69;4983247;28;20104;-76
2024/02/22 10:36:43;;;;;;;1.63;0.80;;;;;;;10.18;56.86;98694.97;4983529;28;20533;-76
2024/02/22 10:39:13;;;;;;;1.10;0.70;;;;;;;10.22;56.35;98684.53;4975806;28;20050;-76
2024/02/22 10:41:41;;;;;;;0.93;0.65;;;;;;;10.24;56.35;98672.38;4992499;28;20594;-76
2024/02/22 10:44:11;;;;;;;1.50;0.63;;;;;;;10.29;56.25;98670.97;4975120;28;20050;-76
2024/02/22 10:46:39;;;;;;;1.08;0.73;;;;;;;10.31;56.36;98674.38;4974435;28;20046;-76
2024/02/22 10:49:10;;;;;;;1.33;0.70;;;;;;;10.35;56.20;98662.88;4976546;28;20097;-76
2024/02/22 10:51:40;;;;;;;1.27;0.70;;;;;;;10.38;56.33;98662.50;4992242;28;20050;-76
2024/02/22 10:54:11;;;;;;;1.45;0.70;;;;;;;10.42;56.72;98650.16;4991435;28;20042;-76
2024/02/22 10:56:42;;;;;;;1.42;0.85;;;;;;;10.44;56.58;98644.50;4992598;28;20038;-76
2024/02/22 10:59:15;;;;;;;1.63;0.80;;;;;;;10.49;56.53;98637.41;4981824;28;20070;-76
2024/02/22 11:01:45;;;;;;;1.92;0.80;;;;;;;10.50;56.22;98628.19;4975401;28;20076;-76
2024/02/22 11:04:15;;;;;;;1.40;0.70;;;;;;;10.55;56.01;98616.72;4974928;28;20050;-76
2024/02/22 11:06:44;;;;;;;1.65;0.77;;;;;;;10.58;56.38;98630.84;4992006;28;20108;-76
2024/02/22 11:09:20;;;;;;;1.88;0.75;;;;;;;10.64;56.10;98615.59;4996852;28;20049;-76
2024/02/22 11:11:48;;;;;;;1.85;0.88;;;;;;;10.65;56.16;98609.06;4984620;28;20129;-76
2024/02/22 11:14:28;;;;;;;1.67;0.73;;;;;;;10.70;56.22;98597.56;4974449;28;20049;-76
2024/02/22 11:17:00;;;;;;;1.23;0.77;;;;;;;10.70;56.56;98592.09;4982998;28;20062;-76
2024/02/22 11:19:28;;;;;;;1.23;0.70;;;;;;;10.73;56.29;98589.00;4975253;28;20046;-76
2024/02/22 11:21:57;;;;;;;0.98;0.55;;;;;;;10.75;56.39;98576.78;4974256;28;20054;-76
2024/02/22 11:24:27;;;;;;;1.45;0.80;;;;;;;10.80;56.37;98568.03;4991783;28;20042;-76
2024/02/22 11:26:57;;;;;;;1.65;0.82;;;;;;;10.81;55.97;98562.34;4992763;28;20125;-76
2024/02/22 11:29:32;;;;;;;1.77;0.90;;;;;;;10.85;56.03;98560.09;4985930;28;20117;-76
2024/02/22 11:32:00;;;;;;;1.00;0.65;;;;;;;10.86;55.73;98556.31;4956950;28;20050;-76
2024/02/22 11:34:30;;;;;;;0.82;0.65;;;;;;;10.87;55.60;98545.19;4992217;28;20073;-77
2024/02/22 11:37:08;;;;;;;1.17;0.70;;;;;;;10.91;55.97;98534.69;4990730;28;20050;-76
2024/02/22 11:39:36;;;;;;;2.13;0.88;;;;;;;10.92;55.84;98529.00;4973987;28;20177;-76
2024/02/22 11:42:04;;;;;;;0.90;0.70;;;;;;;10.95;55.98;98527.78;4966353;28;20193;-76
2024/02/22 11:44:34;;;;;;;1.88;0.70;;;;;;;10.98;56.14;98517.28;4991290;28;20506;-76
2024/02/22 11:47:02;;;;;;;1.73;0.77;;;;;;;10.98;55.70;98506.34;5002641;28;20125;-76
2024/02/22 11:49:30;;;;;;;1.95;0.73;;;;;;;11.00;56.24;98503.41;4996148;28;20671;-76
2024/02/22 11:51:58;;;;;;;1.48;0.75;;;;;;;11.03;55.97;98492.09;4989964;28;20065;-77